Darstellungsparameter: Aktuell verwendete Einstellungen:
Skalierung der Graphiken ... ?
xyx+y,   Skalierungsfaktor:      Skalierung: Modus: x, Faktor: 1
Darstellungszeitraum ... ?
Vom - - bis: - -   Zeitraum: 04.06.2019 - 05.06.2019
Min/Max/Avg-Anzeige ... ?
Zeige MMA aktuell
Zeige MMA Monat
Zeige MMA alles
Zeige --A aktuell
Zeige --A Monat
Zeige --A alles
Keine MMA-Anzeige
MMA:
Average (ber die Originaldaten)
MMA-Basis: 11.05.2019 - 13.06.2019
Quicknavigation für Darstellung... ?
Tage:      1T, 2T, 3T, 5T -1T -2T -3T -5T +1T +2T +3T +5T
Wochen: 1W, 2W, 3W -1W -2W -3W +1W +2W +3W
Monate: 1M, 3M, 6M -1M -3M -6M +1M +3M +6M
Jahre:    1J, 3J, 5J, 10J -1J -3J -5J -10J +1J +3J +5J +10J
Nutze für die Darstellung ... ?
Originaldaten oder Mittelwerte auf ...
Stundenbasis Tagesbasis Wochenbasis
Monatsbasis Jahresbasis      Datenbasis: Original-Daten
Darstellen als:
Statistik (Auto) Statistik J:M      Darstellung:
Zur Graphik,    zurück zur Übersicht aller Sensoren.
 
Tabellarische Datenbersicht: ?
 
Sensor: Nr:Datum:Temp:Abs-Feuchte:Windchill:Wind:
Aussen-T/F 1 04-06-2019 00:00:00 17.3 C 12.37 g/m*3 17.3 C 0 km/h
2 04-06-2019 00:05:00 17.2 C 12.45 g/m*3 17.2 C 0 km/h
3 04-06-2019 00:10:00 17.1 C 12.37 g/m*3 17.1 C 0 km/h
4 04-06-2019 00:15:00 16.9 C 12.37 g/m*3 16.9 C 0 km/h
5 04-06-2019 00:20:00 16.8 C 12.3 g/m*3 16.8 C 0 km/h
6 04-06-2019 00:25:00 16.7 C 12.22 g/m*3 16.7 C 0 km/h
7 04-06-2019 00:30:00 16.6 C 12.29 g/m*3 16.6 C 0 km/h
8 04-06-2019 00:35:00 16.6 C 12.29 g/m*3 16.6 C 0 km/h
9 04-06-2019 00:40:00 16.4 C 12.28 g/m*3 16.4 C 0 km/h
10 04-06-2019 00:45:00 16.4 C 12.28 g/m*3 16.4 C 0 km/h
11 04-06-2019 00:50:00 16.3 C 12.21 g/m*3 16.3 C 0 km/h
12 04-06-2019 00:55:00 16.3 C 12.21 g/m*3 16.3 C 0 km/h
13 04-06-2019 01:00:00 16.2 C 12.27 g/m*3 16.2 C 0 km/h
14 04-06-2019 01:05:00 16.2 C 12.27 g/m*3 16.2 C 0 km/h
15 04-06-2019 01:10:00 16.1 C 12.2 g/m*3 16.1 C 0 km/h
16 04-06-2019 01:15:00 16.1 C 12.2 g/m*3 16.1 C 0 km/h
17 04-06-2019 01:20:00 15.9 C 12.05 g/m*3 15.9 C 0 km/h
18 04-06-2019 01:25:00 15.8 C 12.11 g/m*3 15.8 C 0 km/h
19 04-06-2019 01:30:00 15.8 C 12.11 g/m*3 15.8 C 0 km/h
20 04-06-2019 01:35:00 15.7 C 12.04 g/m*3 15.7 C 0 km/h
21 04-06-2019 01:40:00 15.7 C 12.04 g/m*3 15.7 C 0 km/h
22 04-06-2019 01:45:00 15.6 C 11.97 g/m*3 15.6 C 0 km/h
23 04-06-2019 01:50:00 15.5 C 12.03 g/m*3 15.5 C 0 km/h
24 04-06-2019 01:55:00 15.5 C 12.03 g/m*3 15.5 C 0 km/h
25 04-06-2019 02:00:00 15.4 C 11.96 g/m*3 15.4 C 0 km/h
Sensor: Nr:Datum:Temp:Abs-Feuchte:Windchill:Wind:
Aussen-T/F 26 04-06-2019 02:05:00 15.4 C 11.96 g/m*3 15.4 C 0 km/h
27 04-06-2019 02:10:00 15.3 C 12.01 g/m*3 15.3 C 0 km/h
28 04-06-2019 02:15:00 15.3 C 12.01 g/m*3 15.3 C 0 km/h
29 04-06-2019 02:20:00 15.3 C 12.01 g/m*3 15.3 C 0 km/h
30 04-06-2019 02:25:00 15.2 C 11.94 g/m*3 15.2 C 0 km/h
31 04-06-2019 02:30:00 15.1 C 11.87 g/m*3 15.1 C 0 km/h
32 04-06-2019 02:35:00 15.1 C 11.87 g/m*3 15.1 C 0 km/h
33 04-06-2019 02:40:00 15.1 C 11.87 g/m*3 15.1 C 0 km/h
34 04-06-2019 02:45:00 14.9 C 11.73 g/m*3 14.9 C 0 km/h
35 04-06-2019 02:50:00 14.9 C 11.73 g/m*3 14.9 C 0 km/h
36 04-06-2019 02:55:00 14.8 C 11.65 g/m*3 14.8 C 0 km/h
37 04-06-2019 03:00:00 14.8 C 11.78 g/m*3 14.8 C 0 km/h
38 04-06-2019 03:05:00 14.7 C 11.71 g/m*3 14.7 C 0 km/h
39 04-06-2019 03:10:00 14.6 C 11.51 g/m*3 14.6 C 0 km/h
40 04-06-2019 03:15:00 14.6 C 11.64 g/m*3 14.6 C 0 km/h
41 04-06-2019 03:20:00 14.5 C 11.57 g/m*3 14.5 C 0 km/h
42 04-06-2019 03:25:00 14.4 C 11.5 g/m*3 14.4 C 0 km/h
43 04-06-2019 03:30:00 14.4 C 11.5 g/m*3 14.4 C 0 km/h
44 04-06-2019 03:35:00 14.3 C 11.43 g/m*3 14.3 C 0 km/h
45 04-06-2019 03:40:00 14.3 C 11.43 g/m*3 14.3 C 0 km/h
46 04-06-2019 03:45:00 14.2 C 11.36 g/m*3 14.2 C 0 km/h
47 04-06-2019 03:50:00 14.1 C 11.29 g/m*3 14.1 C 0 km/h
48 04-06-2019 03:55:00 14.1 C 11.29 g/m*3 14.1 C 0 km/h
49 04-06-2019 04:00:00 14 C 11.22 g/m*3 14 C 0 km/h
50 04-06-2019 04:05:00 14 C 11.22 g/m*3 14 C 0 km/h
Sensor: Nr:Datum:Temp:Abs-Feuchte:Windchill:Wind:
Aussen-T/F 51 04-06-2019 04:10:00 13.9 C 11.15 g/m*3 13.9 C 0 km/h
52 04-06-2019 04:15:00 13.9 C 11.27 g/m*3 13.9 C 0 km/h
53 04-06-2019 04:20:00 13.8 C 11.08 g/m*3 13.8 C 0 km/h
54 04-06-2019 04:25:00 13.7 C 11.13 g/m*3 13.7 C 0 km/h
55 04-06-2019 04:30:00 13.6 C 10.95 g/m*3 13.6 C 0 km/h
56 04-06-2019 04:35:00 13.6 C 10.95 g/m*3 13.6 C 0 km/h
57 04-06-2019 04:40:00 13.4 C 10.93 g/m*3 13.4 C 0 km/h
58 04-06-2019 04:45:00 13.4 C 10.93 g/m*3 13.4 C 0 km/h
59 04-06-2019 04:50:00 13.3 C 10.86 g/m*3 13.3 C 0 km/h
60 04-06-2019 04:55:00 13.3 C 10.86 g/m*3 13.3 C 0 km/h
61 04-06-2019 05:00:00 13.3 C 10.86 g/m*3 13.3 C 0 km/h
62 04-06-2019 05:05:00 13.3 C 10.86 g/m*3 13.3 C 0 km/h
63 04-06-2019 05:10:00 13.3 C 10.86 g/m*3 13.3 C 0 km/h
64 04-06-2019 05:15:00 13.3 C 10.86 g/m*3 13.3 C 0 km/h
65 04-06-2019 05:20:00 13.2 C 10.79 g/m*3 13.2 C 0 km/h
66 04-06-2019 05:25:00 13.2 C 10.79 g/m*3 13.2 C 0 km/h
67 04-06-2019 05:30:00 13.1 C 10.73 g/m*3 13.1 C 0 km/h
68 04-06-2019 05:35:00 13.1 C 10.73 g/m*3 13.1 C 0 km/h
69 04-06-2019 05:40:00 13.2 C 10.91 g/m*3 13.2 C 1.6 km/h
70 04-06-2019 05:45:00 13.2 C 10.91 g/m*3 13.2 C 0 km/h
71 04-06-2019 05:50:00 13.1 C 10.84 g/m*3 13.1 C 0 km/h
72 04-06-2019 05:55:00 13.1 C 10.73 g/m*3 13.1 C 1.6 km/h
73 04-06-2019 06:00:00 13.1 C 10.84 g/m*3 13.1 C 0 km/h
74 04-06-2019 06:05:00 13.1 C 10.84 g/m*3 13.1 C 0 km/h
75 04-06-2019 06:10:00 13.1 C 10.84 g/m*3 13.1 C 0 km/h
Sensor: Nr:Datum:Temp:Abs-Feuchte:Windchill:Wind:
Aussen-T/F 76 04-06-2019 06:15:00 13.1 C 10.84 g/m*3 13.1 C 0 km/h
77 04-06-2019 06:20:00 13.1 C 10.84 g/m*3 13.1 C 0 km/h
78 04-06-2019 06:25:00 13.2 C 10.91 g/m*3 13.2 C 0 km/h
79 04-06-2019 06:30:00 13.2 C 10.91 g/m*3 13.2 C 0 km/h
80 04-06-2019 06:35:00 13.3 C 10.98 g/m*3 13.3 C 0 km/h
81 04-06-2019 06:40:00 13.3 C 10.98 g/m*3 13.3 C 0 km/h
82 04-06-2019 06:45:00 13.4 C 11.04 g/m*3 13.4 C 0 km/h
83 04-06-2019 06:50:00 13.6 C 11.3 g/m*3 13.6 C 1.6 km/h
84 04-06-2019 06:55:00 13.8 C 11.44 g/m*3 13.8 C 0 km/h
85 04-06-2019 07:00:00 13.9 C 11.51 g/m*3 13.9 C 0 km/h
86 04-06-2019 07:05:00 14.1 C 11.65 g/m*3 14.1 C 0 km/h
87 04-06-2019 07:10:00 14.2 C 11.72 g/m*3 14.2 C 0 km/h
88 04-06-2019 07:15:00 14.3 C 11.67 g/m*3 14.3 C 0 km/h
89 04-06-2019 07:20:00 14.4 C 11.74 g/m*3 14.4 C 0 km/h
90 04-06-2019 07:25:00 14.4 C 11.74 g/m*3 14.4 C 0 km/h
91 04-06-2019 07:30:00 14.6 C 11.89 g/m*3 14.6 C 0 km/h
92 04-06-2019 07:35:00 14.7 C 11.96 g/m*3 14.7 C 0 km/h
93 04-06-2019 07:40:00 14.8 C 12.03 g/m*3 14.8 C 0 km/h
94 04-06-2019 07:45:00 14.9 C 11.98 g/m*3 14.9 C 0 km/h
95 04-06-2019 07:50:00 14.9 C 11.98 g/m*3 14.9 C 0 km/h
96 04-06-2019 07:55:00 15.1 C 12.13 g/m*3 15.1 C 0 km/h
97 04-06-2019 08:00:00 15.2 C 12.2 g/m*3 15.2 C 0 km/h
98 04-06-2019 08:05:00 15.3 C 12.14 g/m*3 15.3 C 0 km/h
99 04-06-2019 08:10:00 15.5 C 12.29 g/m*3 15.5 C 0 km/h
100 04-06-2019 08:15:00 15.6 C 12.37 g/m*3 15.6 C 0 km/h
Sensor: Nr:Datum:Temp:Abs-Feuchte:Windchill:Wind:
Aussen-T/F 101 04-06-2019 08:20:00 15.8 C 12.38 g/m*3 15.8 C 0 km/h
102 04-06-2019 08:25:00 15.9 C 12.46 g/m*3 15.9 C 0 km/h
103 04-06-2019 08:30:00 16.1 C 12.47 g/m*3 16.1 C 0 km/h
104 04-06-2019 08:35:00 16.3 C 12.62 g/m*3 16.3 C 0 km/h
105 04-06-2019 08:40:00 16.6 C 13 g/m*3 16.6 C 1.6 km/h
106 04-06-2019 08:45:00 16.7 C 12.93 g/m*3 16.7 C 4.8 km/h
107 04-06-2019 08:50:00 16.8 C 13.01 g/m*3 16.8 C 4.8 km/h
108 04-06-2019 08:55:00 16.8 C 12.87 g/m*3 16.8 C 4.8 km/h
109 04-06-2019 09:00:00 16.8 C 12.87 g/m*3 16.8 C 0 km/h
110 04-06-2019 09:05:00 16.8 C 12.87 g/m*3 16.8 C 0 km/h
111 04-06-2019 09:10:00 16.9 C 12.94 g/m*3 16.9 C 3.2 km/h
112 04-06-2019 09:15:00 17.1 C 13.1 g/m*3 17.1 C 0 km/h
113 04-06-2019 09:20:00 17.2 C 13.18 g/m*3 17.2 C 0 km/h
114 04-06-2019 09:25:00 17.3 C 13.26 g/m*3 17.3 C 0 km/h
115 04-06-2019 09:30:00 17.4 C 13.19 g/m*3 17.4 C 3.2 km/h
116 04-06-2019 09:35:00 17.6 C 13.2 g/m*3 17.6 C 1.6 km/h
117 04-06-2019 09:40:00 17.8 C 13.2 g/m*3 17.8 C 4.8 km/h
118 04-06-2019 09:45:00 17.9 C 13.28 g/m*3 17.9 C 3.2 km/h
119 04-06-2019 09:50:00 18.2 C 13.52 g/m*3 18.2 C 4.8 km/h
120 04-06-2019 09:55:00 18.4 C 13.53 g/m*3 18.4 C 4.8 km/h
121 04-06-2019 10:00:00 18.6 C 13.53 g/m*3 18.6 C 6.4 km/h
122 04-06-2019 10:05:00 18.8 C 13.53 g/m*3 18.8 C 4.8 km/h
123 04-06-2019 10:10:00 19.2 C 13.69 g/m*3 19.2 C 8.1 km/h
124 04-06-2019 10:15:00 19.6 C 13.67 g/m*3 19.6 C 9.7 km/h
125 04-06-2019 10:20:00 19.9 C 13.57 g/m*3 19.9 C 11.3 km/h
Sensor: Nr:Datum:Temp:Abs-Feuchte:Windchill:Wind:
Aussen-T/F 126 04-06-2019 10:25:00 20.2 C 13.81 g/m*3 20.2 C 11.3 km/h
127 04-06-2019 10:30:00 20.4 C 13.62 g/m*3 20.4 C 6.4 km/h
128 04-06-2019 10:35:00 20.6 C 13.78 g/m*3 20.6 C 4.8 km/h
129 04-06-2019 10:40:00 20.9 C 13.84 g/m*3 20.9 C 9.7 km/h
130 04-06-2019 10:45:00 21.2 C 13.9 g/m*3 21.2 C 6.4 km/h
131 04-06-2019 10:50:00 21.3 C 13.98 g/m*3 21.3 C 4.8 km/h
132 04-06-2019 10:55:00 21.3 C 13.61 g/m*3 21.3 C 8.1 km/h
133 04-06-2019 11:00:00 21.6 C 13.85 g/m*3 21.6 C 11.3 km/h
134 04-06-2019 11:05:00 21.7 C 13.73 g/m*3 21.7 C 9.7 km/h
135 04-06-2019 11:10:00 21.8 C 13.81 g/m*3 21.8 C 11.3 km/h
136 04-06-2019 11:15:00 21.9 C 13.7 g/m*3 21.9 C 12.9 km/h
137 04-06-2019 11:20:00 22.1 C 13.86 g/m*3 22.1 C 9.7 km/h
138 04-06-2019 11:25:00 22.2 C 14.14 g/m*3 22.2 C 11.3 km/h
139 04-06-2019 11:30:00 22.4 C 14.3 g/m*3 22.4 C 12.9 km/h
140 04-06-2019 11:35:00 22.6 C 14.06 g/m*3 22.6 C 8.1 km/h
141 04-06-2019 11:40:00 22.8 C 14.22 g/m*3 22.8 C 8.1 km/h
142 04-06-2019 11:45:00 22.9 C 14.31 g/m*3 22.9 C 8.1 km/h
143 04-06-2019 11:50:00 23.1 C 14.47 g/m*3 23.1 C 9.7 km/h
144 04-06-2019 11:55:00 23.2 C 14.55 g/m*3 23.2 C 8.1 km/h
145 04-06-2019 12:00:00 23.3 C 14.43 g/m*3 23.3 C 9.7 km/h
146 04-06-2019 12:05:00 23.3 C 14.43 g/m*3 23.3 C 6.4 km/h
147 04-06-2019 12:10:00 23.3 C 14.43 g/m*3 23.3 C 9.7 km/h
148 04-06-2019 12:15:00 23.3 C 14.43 g/m*3 23.3 C 8.1 km/h
149 04-06-2019 12:20:00 23.5 C 14.59 g/m*3 23.5 C 8.1 km/h
150 04-06-2019 12:25:00 23.7 C 14.76 g/m*3 23.7 C 11.3 km/h
Sensor: Nr:Datum:Temp:Abs-Feuchte:Windchill:Wind:
Aussen-T/F 151 04-06-2019 12:30:00 24 C 15.01 g/m*3 24 C 12.9 km/h
152 04-06-2019 12:35:00 24.2 C 14.74 g/m*3 24.2 C 9.7 km/h
153 04-06-2019 12:40:00 24.3 C 15.05 g/m*3 24.3 C 4.8 km/h
154 04-06-2019 12:45:00 24.4 C 14.91 g/m*3 24.4 C 11.3 km/h
155 04-06-2019 12:50:00 24.6 C 15.08 g/m*3 24.6 C 9.7 km/h
156 04-06-2019 12:55:00 24.8 C 15.02 g/m*3 24.8 C 9.7 km/h
157 04-06-2019 13:00:00 24.9 C 14.88 g/m*3 24.9 C 11.3 km/h
158 04-06-2019 13:05:00 25.2 C 14.67 g/m*3 25.2 C 8.1 km/h
159 04-06-2019 13:10:00 25.3 C 14.75 g/m*3 25.3 C 8.1 km/h
160 04-06-2019 13:15:00 25.5 C 14.44 g/m*3 25.5 C 8.1 km/h
161 04-06-2019 13:20:00 25.6 C 15.24 g/m*3 25.6 C 8.1 km/h
162 04-06-2019 13:25:00 25.7 C 14.13 g/m*3 25.7 C 6.4 km/h
163 04-06-2019 13:30:00 25.8 C 14.2 g/m*3 25.8 C 6.4 km/h
164 04-06-2019 13:35:00 25.8 C 14.45 g/m*3 25.8 C 8.1 km/h
165 04-06-2019 13:40:00 25.9 C 14.28 g/m*3 25.9 C 6.4 km/h
166 04-06-2019 13:45:00 26.2 C 14.28 g/m*3 26.2 C 16.1 km/h
167 04-06-2019 13:50:00 26.4 C 14.19 g/m*3 26.4 C 12.9 km/h
168 04-06-2019 13:55:00 26.6 C 14.35 g/m*3 26.6 C 8.1 km/h
169 04-06-2019 14:00:00 26.7 C 14.17 g/m*3 26.7 C 6.4 km/h
170 04-06-2019 14:05:00 26.8 C 14 g/m*3 26.8 C 6.4 km/h
171 04-06-2019 14:10:00 26.9 C 13.82 g/m*3 26.9 C 6.4 km/h
172 04-06-2019 14:15:00 27.1 C 14.49 g/m*3 27.1 C 9.7 km/h
173 04-06-2019 14:20:00 27.3 C 14.65 g/m*3 27.3 C 12.9 km/h
174 04-06-2019 14:25:00 27.4 C 14.73 g/m*3 27.4 C 8.1 km/h
175 04-06-2019 14:30:00 27.4 C 14.21 g/m*3 27.4 C 8.1 km/h
Sensor: Nr:Datum:Temp:Abs-Feuchte:Windchill:Wind:
Aussen-T/F 176 04-06-2019 14:35:00 27.5 C 14.02 g/m*3 27.5 C 8.1 km/h
177 04-06-2019 14:40:00 27.6 C 14.37 g/m*3 27.6 C 8.1 km/h
178 04-06-2019 14:45:00 27.9 C 14.87 g/m*3 27.9 C 11.3 km/h
179 04-06-2019 14:50:00 28.1 C 14.22 g/m*3 28.1 C 9.7 km/h
180 04-06-2019 14:55:00 28.1 C 14.77 g/m*3 28.1 C 9.7 km/h
181 04-06-2019 15:00:00 28.2 C 14.85 g/m*3 28.2 C 11.3 km/h
182 04-06-2019 15:05:00 28.3 C 14.38 g/m*3 28.3 C 12.9 km/h
183 04-06-2019 15:10:00 28.4 C 15.01 g/m*3 28.4 C 6.4 km/h
184 04-06-2019 15:15:00 28.3 C 14.38 g/m*3 28.3 C 6.4 km/h
185 04-06-2019 15:20:00 28.4 C 14.45 g/m*3 28.4 C 6.4 km/h
186 04-06-2019 15:25:00 28.6 C 14.33 g/m*3 28.6 C 4.8 km/h
187 04-06-2019 15:30:00 28.7 C 14.41 g/m*3 28.7 C 8.1 km/h
188 04-06-2019 15:35:00 28.8 C 15.63 g/m*3 28.8 C 9.7 km/h
189 04-06-2019 15:40:00 29.2 C 15.39 g/m*3 29.2 C 3.2 km/h
190 04-06-2019 15:45:00 29.2 C 14.52 g/m*3 29.2 C 6.4 km/h
191 04-06-2019 15:50:00 29.1 C 14.73 g/m*3 29.1 C 6.4 km/h
192 04-06-2019 15:55:00 29.2 C 15.1 g/m*3 29.2 C 6.4 km/h
193 04-06-2019 16:00:00 29.4 C 15.85 g/m*3 29.4 C 3.2 km/h
194 04-06-2019 16:05:00 29.8 C 16.2 g/m*3 29.8 C 8.1 km/h
195 04-06-2019 16:10:00 30.3 C 15.41 g/m*3 30.3 C 11.3 km/h
196 04-06-2019 16:15:00 30.4 C 15.49 g/m*3 30.4 C 11.3 km/h
197 04-06-2019 16:20:00 30.4 C 15.49 g/m*3 30.4 C 9.7 km/h
198 04-06-2019 16:25:00 30.5 C 14.95 g/m*3 30.5 C 9.7 km/h
199 04-06-2019 16:30:00 30.4 C 15.49 g/m*3 30.4 C 8.1 km/h
200 04-06-2019 16:35:00 30.6 C 16.29 g/m*3 30.6 C 9.7 km/h
Sensor: Nr:Datum:Temp:Abs-Feuchte:Windchill:Wind:
Aussen-T/F 201 04-06-2019 16:40:00 30.9 C 15.28 g/m*3 30.9 C 4.8 km/h
202 04-06-2019 16:45:00 31.2 C 14.88 g/m*3 31.2 C 8.1 km/h
203 04-06-2019 16:50:00 31.3 C 15.28 g/m*3 31.3 C 6.4 km/h
204 04-06-2019 16:55:00 31.6 C 15.2 g/m*3 31.6 C 4.8 km/h
205 04-06-2019 17:00:00 31.7 C 14.62 g/m*3 31.7 C 11.3 km/h
206 04-06-2019 17:05:00 31.8 C 15.03 g/m*3 31.8 C 3.2 km/h
207 04-06-2019 17:10:00 31.8 C 15.36 g/m*3 31.8 C 8.1 km/h
208 04-06-2019 17:15:00 31.9 C 14.78 g/m*3 31.9 C 6.4 km/h
209 04-06-2019 17:20:00 32 C 14.85 g/m*3 32 C 8.1 km/h
210 04-06-2019 17:25:00 32.1 C 15.27 g/m*3 32.1 C 4.8 km/h
211 04-06-2019 17:30:00 32.1 C 14.93 g/m*3 32.1 C 14.5 km/h
212 04-06-2019 17:35:00 32.1 C 14.59 g/m*3 32.1 C 4.8 km/h
213 04-06-2019 17:40:00 31.9 C 15.11 g/m*3 31.9 C 6.4 km/h
214 04-06-2019 17:45:00 31.9 C 14.78 g/m*3 31.9 C 4.8 km/h
215 04-06-2019 17:50:00 31.9 C 15.11 g/m*3 31.9 C 9.7 km/h
216 04-06-2019 17:55:00 31.9 C 14.78 g/m*3 31.9 C 6.4 km/h
217 04-06-2019 18:00:00 32.1 C 15.27 g/m*3 32.1 C 6.4 km/h
218 04-06-2019 18:05:00 32.1 C 14.59 g/m*3 32.1 C 9.7 km/h
219 04-06-2019 18:10:00 31.9 C 14.44 g/m*3 31.9 C 11.3 km/h
220 04-06-2019 18:15:00 31.8 C 16.03 g/m*3 31.8 C 4.8 km/h
221 04-06-2019 18:20:00 31.8 C 15.36 g/m*3 31.8 C 8.1 km/h
222 04-06-2019 18:25:00 31.6 C 14.87 g/m*3 31.6 C 9.7 km/h
223 04-06-2019 18:30:00 31.3 C 14.63 g/m*3 31.3 C 4.8 km/h
224 04-06-2019 18:35:00 31.1 C 14.48 g/m*3 31.1 C 8.1 km/h
225 04-06-2019 18:40:00 30.8 C 15.51 g/m*3 30.8 C 3.2 km/h
Sensor: Nr:Datum:Temp:Abs-Feuchte:Windchill:Wind:
Aussen-T/F 226 04-06-2019 18:45:00 30.5 C 15.58 g/m*3 30.5 C 3.2 km/h
227 04-06-2019 18:50:00 30.1 C 16.46 g/m*3 30.1 C 3.2 km/h
228 04-06-2019 18:55:00 29.8 C 16.8 g/m*3 29.8 C 1.6 km/h
229 04-06-2019 19:00:00 29.8 C 14.7 g/m*3 29.8 C 6.4 km/h
230 04-06-2019 19:05:00 30.1 C 16.77 g/m*3 30.1 C 1.6 km/h
231 04-06-2019 19:10:00 30.2 C 16.25 g/m*3 30.2 C 1.6 km/h
232 04-06-2019 19:15:00 30.2 C 16.55 g/m*3 30.2 C 3.2 km/h
233 04-06-2019 19:20:00 29.9 C 16.59 g/m*3 29.9 C 6.4 km/h
234 04-06-2019 19:25:00 29.5 C 15.05 g/m*3 29.5 C 3.2 km/h
235 04-06-2019 19:30:00 29.2 C 16.55 g/m*3 29.2 C 0 km/h
236 04-06-2019 19:35:00 28.8 C 16.48 g/m*3 28.8 C 0 km/h
237 04-06-2019 19:40:00 28.5 C 15.09 g/m*3 28.5 C 3.2 km/h
238 04-06-2019 19:45:00 28.4 C 16.4 g/m*3 28.4 C 0 km/h
239 04-06-2019 19:50:00 28.3 C 16.59 g/m*3 28.3 C 1.6 km/h
240 04-06-2019 19:55:00 28.1 C 14.77 g/m*3 28.1 C 6.4 km/h
241 04-06-2019 20:00:00 28.1 C 16.13 g/m*3 28.1 C 1.6 km/h
242 04-06-2019 20:05:00 27.9 C 16.23 g/m*3 27.9 C 0 km/h
243 04-06-2019 20:10:00 27.6 C 16.23 g/m*3 27.6 C 0 km/h
244 04-06-2019 20:15:00 27.3 C 15.96 g/m*3 27.3 C 0 km/h
245 04-06-2019 20:20:00 27 C 15.96 g/m*3 27 C 0 km/h
246 04-06-2019 20:25:00 26.7 C 15.69 g/m*3 26.7 C 0 km/h
247 04-06-2019 20:30:00 26.4 C 15.68 g/m*3 26.4 C 0 km/h
248 04-06-2019 20:35:00 26.1 C 15.67 g/m*3 26.1 C 0 km/h
249 04-06-2019 20:40:00 25.8 C 15.41 g/m*3 25.8 C 0 km/h
250 04-06-2019 20:45:00 25.4 C 15.07 g/m*3 25.4 C 0 km/h
Sensor: Nr:Datum:Temp:Abs-Feuchte:Windchill:Wind:
Aussen-T/F 251 04-06-2019 20:50:00 25.1 C 15.05 g/m*3 25.1 C 0 km/h
252 04-06-2019 20:55:00 24.8 C 15.02 g/m*3 24.8 C 0 km/h
253 04-06-2019 21:00:00 24.5 C 14.77 g/m*3 24.5 C 0 km/h
254 04-06-2019 21:05:00 24.2 C 14.52 g/m*3 24.2 C 0 km/h
255 04-06-2019 21:10:00 24 C 14.36 g/m*3 24 C 0 km/h
256 04-06-2019 21:15:00 23.8 C 14.2 g/m*3 23.8 C 0 km/h
257 04-06-2019 21:20:00 23.6 C 14.25 g/m*3 23.6 C 0 km/h
258 04-06-2019 21:25:00 23.4 C 14.09 g/m*3 23.4 C 0 km/h
259 04-06-2019 21:30:00 23.2 C 14.14 g/m*3 23.2 C 0 km/h
260 04-06-2019 21:35:00 23.1 C 14.26 g/m*3 23.1 C 0 km/h
261 04-06-2019 21:40:00 22.9 C 14.1 g/m*3 22.9 C 0 km/h
262 04-06-2019 21:45:00 22.7 C 13.94 g/m*3 22.7 C 0 km/h
263 04-06-2019 21:50:00 22.6 C 13.86 g/m*3 22.6 C 0 km/h
264 04-06-2019 21:55:00 22.4 C 13.9 g/m*3 22.4 C 0 km/h
265 04-06-2019 22:00:00 22.3 C 14.02 g/m*3 22.3 C 0 km/h
266 04-06-2019 22:05:00 22.3 C 14.02 g/m*3 22.3 C 0 km/h
267 04-06-2019 22:10:00 22.2 C 13.74 g/m*3 22.2 C 0 km/h
268 04-06-2019 22:15:00 22.1 C 13.66 g/m*3 22.1 C 0 km/h
269 04-06-2019 22:20:00 22.1 C 13.86 g/m*3 22.1 C 0 km/h
270 04-06-2019 22:25:00 22 C 13.59 g/m*3 22 C 0 km/h
271 04-06-2019 22:30:00 21.9 C 13.89 g/m*3 21.9 C 0 km/h
272 04-06-2019 22:35:00 21.9 C 13.7 g/m*3 21.9 C 0 km/h
273 04-06-2019 22:40:00 21.9 C 13.89 g/m*3 21.9 C 0 km/h
274 04-06-2019 22:45:00 21.9 C 13.51 g/m*3 21.9 C 0 km/h
275 04-06-2019 22:50:00 21.9 C 13.51 g/m*3 21.9 C 0 km/h
Sensor: Nr:Datum:Temp:Abs-Feuchte:Windchill:Wind:
Aussen-T/F 276 04-06-2019 22:55:00 21.8 C 13.43 g/m*3 21.8 C 3.2 km/h
277 04-06-2019 23:00:00 21.9 C 13.7 g/m*3 21.9 C 3.2 km/h
278 04-06-2019 23:05:00 22 C 12.81 g/m*3 22 C 4.8 km/h
279 04-06-2019 23:10:00 22.4 C 13.5 g/m*3 22.4 C 1.6 km/h
280 04-06-2019 23:15:00 22.7 C 13.54 g/m*3 22.7 C 1.6 km/h
281 04-06-2019 23:20:00 22.7 C 13.13 g/m*3 22.7 C 6.4 km/h
282 04-06-2019 23:25:00 22.8 C 12.8 g/m*3 22.8 C 6.4 km/h
283 04-06-2019 23:30:00 22.9 C 12.88 g/m*3 22.9 C 3.2 km/h
284 04-06-2019 23:35:00 23.1 C 13.23 g/m*3 23.1 C 4.8 km/h
285 04-06-2019 23:40:00 23 C 13.36 g/m*3 23 C 4.8 km/h
286 04-06-2019 23:45:00 22.9 C 13.28 g/m*3 22.9 C 8.1 km/h
287 04-06-2019 23:50:00 22.9 C 12.47 g/m*3 22.9 C 3.2 km/h
288 04-06-2019 23:55:00 23.2 C 12.47 g/m*3 23.2 C 3.2 km/h
289 05-06-2019 00:00:00 23.4 C 13.46 g/m*3 23.4 C 0 km/h
290 05-06-2019 00:05:00 23.4 C 13.25 g/m*3 23.4 C 3.2 km/h
291 05-06-2019 00:10:00 23.3 C 12.96 g/m*3 23.3 C 14.5 km/h
292 05-06-2019 00:15:00 23.6 C 12.34 g/m*3 23.6 C 17.7 km/h
293 05-06-2019 00:20:00 24 C 13.05 g/m*3 24 C 6.4 km/h
294 05-06-2019 00:25:00 24 C 13.27 g/m*3 24 C 0 km/h
295 05-06-2019 00:30:00 23.8 C 13.34 g/m*3 23.8 C 0 km/h
296 05-06-2019 00:35:00 23.6 C 13.19 g/m*3 23.6 C 0 km/h
297 05-06-2019 00:40:00 23.2 C 13.31 g/m*3 23.2 C 0 km/h
298 05-06-2019 00:45:00 22.7 C 13.33 g/m*3 22.7 C 0 km/h
299 05-06-2019 00:50:00 22.3 C 13.23 g/m*3 22.3 C 0 km/h
300 05-06-2019 00:55:00 22.1 C 13.08 g/m*3 22.1 C 0 km/h
Sensor: Nr:Datum:Temp:Abs-Feuchte:Windchill:Wind:
Aussen-T/F 301 05-06-2019 01:00:00 21.8 C 12.85 g/m*3 21.8 C 0 km/h
302 05-06-2019 01:05:00 21.7 C 12.97 g/m*3 21.7 C 0 km/h
303 05-06-2019 01:10:00 21.6 C 13.28 g/m*3 21.6 C 0 km/h
304 05-06-2019 01:15:00 21.4 C 12.94 g/m*3 21.4 C 0 km/h
305 05-06-2019 01:20:00 21.3 C 12.86 g/m*3 21.3 C 0 km/h
306 05-06-2019 01:25:00 21.2 C 13.16 g/m*3 21.2 C 0 km/h
307 05-06-2019 01:30:00 21.2 C 12.97 g/m*3 21.2 C 0 km/h
308 05-06-2019 01:35:00 21.2 C 12.97 g/m*3 21.2 C 0 km/h
309 05-06-2019 01:40:00 21.2 C 13.16 g/m*3 21.2 C 0 km/h
310 05-06-2019 01:45:00 21.2 C 13.16 g/m*3 21.2 C 0 km/h
311 05-06-2019 01:50:00 21.1 C 13.27 g/m*3 21.1 C 0 km/h
312 05-06-2019 01:55:00 21.1 C 13.08 g/m*3 21.1 C 0 km/h
313 05-06-2019 02:00:00 21 C 13.19 g/m*3 21 C 0 km/h
314 05-06-2019 02:05:00 21 C 13.19 g/m*3 21 C 0 km/h
315 05-06-2019 02:10:00 20.9 C 13.3 g/m*3 20.9 C 0 km/h
316 05-06-2019 02:15:00 20.8 C 13.22 g/m*3 20.8 C 0 km/h
317 05-06-2019 02:20:00 20.7 C 13.32 g/m*3 20.7 C 0 km/h
318 05-06-2019 02:25:00 20.6 C 13.42 g/m*3 20.6 C 0 km/h
319 05-06-2019 02:30:00 20.6 C 13.42 g/m*3 20.6 C 0 km/h
320 05-06-2019 02:35:00 20.4 C 13.27 g/m*3 20.4 C 0 km/h
321 05-06-2019 02:40:00 20.3 C 13.19 g/m*3 20.3 C 0 km/h
322 05-06-2019 02:45:00 20.3 C 13.19 g/m*3 20.3 C 0 km/h
323 05-06-2019 02:50:00 20.2 C 13.11 g/m*3 20.2 C 0 km/h
324 05-06-2019 02:55:00 20.1 C 13.21 g/m*3 20.1 C 0 km/h
325 05-06-2019 03:00:00 19.9 C 13.06 g/m*3 19.9 C 0 km/h
Sensor: Nr:Datum:Temp:Abs-Feuchte:Windchill:Wind:
Aussen-T/F 326 05-06-2019 03:05:00 19.7 C 12.91 g/m*3 19.7 C 0 km/h
327 05-06-2019 03:10:00 19.5 C 12.92 g/m*3 19.5 C 0 km/h
328 05-06-2019 03:15:00 19.3 C 12.77 g/m*3 19.3 C 0 km/h
329 05-06-2019 03:20:00 19.2 C 12.86 g/m*3 19.2 C 0 km/h
330 05-06-2019 03:25:00 19.2 C 12.86 g/m*3 19.2 C 0 km/h
331 05-06-2019 03:30:00 19.2 C 12.86 g/m*3 19.2 C 0 km/h
332 05-06-2019 03:35:00 19.2 C 12.86 g/m*3 19.2 C 0 km/h
333 05-06-2019 03:40:00 19.2 C 13.03 g/m*3 19.2 C 0 km/h
334 05-06-2019 03:45:00 19.2 C 13.03 g/m*3 19.2 C 0 km/h
335 05-06-2019 03:50:00 19.3 C 13.1 g/m*3 19.3 C 0 km/h
336 05-06-2019 03:55:00 19.3 C 13.1 g/m*3 19.3 C 0 km/h
337 05-06-2019 04:00:00 19.3 C 13.1 g/m*3 19.3 C 0 km/h
338 05-06-2019 04:05:00 19.3 C 13.27 g/m*3 19.3 C 0 km/h
339 05-06-2019 04:10:00 19.3 C 13.1 g/m*3 19.3 C 0 km/h
340 05-06-2019 04:15:00 19.3 C 13.27 g/m*3 19.3 C 0 km/h
341 05-06-2019 04:20:00 19.2 C 13.19 g/m*3 19.2 C 0 km/h
342 05-06-2019 04:25:00 19 C 13.04 g/m*3 19 C 0 km/h
343 05-06-2019 04:30:00 18.8 C 12.72 g/m*3 18.8 C 0 km/h
344 05-06-2019 04:35:00 18.7 C 12.97 g/m*3 18.7 C 0 km/h
345 05-06-2019 04:40:00 18.5 C 12.82 g/m*3 18.5 C 0 km/h
346 05-06-2019 04:45:00 18.3 C 12.66 g/m*3 18.3 C 0 km/h
347 05-06-2019 04:50:00 18.1 C 12.52 g/m*3 18.1 C 0 km/h
348 05-06-2019 04:55:00 17.9 C 12.52 g/m*3 17.9 C 1.6 km/h
349 05-06-2019 05:00:00 17.8 C 12.45 g/m*3 17.8 C 0 km/h
350 05-06-2019 05:05:00 17.7 C 12.52 g/m*3 17.7 C 0 km/h
Sensor: Nr:Datum:Temp:Abs-Feuchte:Windchill:Wind:
Aussen-T/F 351 05-06-2019 05:10:00 17.6 C 12.45 g/m*3 17.6 C 0 km/h
352 05-06-2019 05:15:00 17.5 C 12.37 g/m*3 17.5 C 0 km/h
353 05-06-2019 05:20:00 17.4 C 12.3 g/m*3 17.4 C 0 km/h
354 05-06-2019 05:25:00 17.4 C 12.45 g/m*3 17.4 C 0 km/h
355 05-06-2019 05:30:00 17.4 C 12.45 g/m*3 17.4 C 0 km/h
356 05-06-2019 05:35:00 17.3 C 12.37 g/m*3 17.3 C 1.6 km/h
357 05-06-2019 05:40:00 17.3 C 12.52 g/m*3 17.3 C 1.6 km/h
358 05-06-2019 05:45:00 17.3 C 12.52 g/m*3 17.3 C 9.7 km/h
359 05-06-2019 05:50:00 17.3 C 12.52 g/m*3 17.3 C 4.8 km/h
360 05-06-2019 05:55:00 17.3 C 12.52 g/m*3 17.3 C 8.1 km/h
361 05-06-2019 06:00:00 17.4 C 12.6 g/m*3 17.4 C 8.1 km/h
362 05-06-2019 06:05:00 17.6 C 12.75 g/m*3 17.6 C 6.4 km/h
363 05-06-2019 06:10:00 17.7 C 12.82 g/m*3 17.7 C 3.2 km/h
364 05-06-2019 06:15:00 17.7 C 12.82 g/m*3 17.7 C 4.8 km/h
365 05-06-2019 06:20:00 17.7 C 12.82 g/m*3 17.7 C 0 km/h
366 05-06-2019 06:25:00 17.7 C 12.82 g/m*3 17.7 C 0 km/h
367 05-06-2019 06:30:00 17.7 C 12.82 g/m*3 17.7 C 0 km/h
368 05-06-2019 06:35:00 17.7 C 12.98 g/m*3 17.7 C 1.6 km/h
369 05-06-2019 06:40:00 17.7 C 12.98 g/m*3 17.7 C 0 km/h
370 05-06-2019 06:45:00 17.7 C 12.82 g/m*3 17.7 C 6.4 km/h
371 05-06-2019 06:50:00 17.8 C 12.9 g/m*3 17.8 C 6.4 km/h
372 05-06-2019 06:55:00 17.9 C 13.13 g/m*3 17.9 C 4.8 km/h
373 05-06-2019 07:00:00 17.9 C 13.13 g/m*3 17.9 C 0 km/h
374 05-06-2019 07:05:00 17.9 C 13.13 g/m*3 17.9 C 0 km/h
375 05-06-2019 07:10:00 17.9 C 13.13 g/m*3 17.9 C 0 km/h
Sensor: Nr:Datum:Temp:Abs-Feuchte:Windchill:Wind:
Aussen-T/F 376 05-06-2019 07:15:00 17.9 C 13.13 g/m*3 17.9 C 0 km/h
377 05-06-2019 07:20:00 17.9 C 13.28 g/m*3 17.9 C 0 km/h
378 05-06-2019 07:25:00 17.9 C 13.13 g/m*3 17.9 C 0 km/h
379 05-06-2019 07:30:00 18 C 13.36 g/m*3 18 C 0 km/h
380 05-06-2019 07:35:00 18 C 13.36 g/m*3 18 C 0 km/h
381 05-06-2019 07:40:00 18.1 C 13.44 g/m*3 18.1 C 0 km/h
382 05-06-2019 07:45:00 18.1 C 13.44 g/m*3 18.1 C 0 km/h
383 05-06-2019 07:50:00 18.1 C 13.44 g/m*3 18.1 C 0 km/h
384 05-06-2019 07:55:00 18.1 C 13.44 g/m*3 18.1 C 0 km/h
385 05-06-2019 08:00:00 18.1 C 13.44 g/m*3 18.1 C 0 km/h
386 05-06-2019 08:05:00 18.1 C 13.6 g/m*3 18.1 C 0 km/h
387 05-06-2019 08:10:00 18.2 C 13.68 g/m*3 18.2 C 0 km/h
388 05-06-2019 08:15:00 18.2 C 13.68 g/m*3 18.2 C 0 km/h
389 05-06-2019 08:20:00 18.3 C 13.76 g/m*3 18.3 C 0 km/h
390 05-06-2019 08:25:00 18.3 C 13.76 g/m*3 18.3 C 0 km/h
391 05-06-2019 08:30:00 18.4 C 13.84 g/m*3 18.4 C 0 km/h
392 05-06-2019 08:35:00 18.4 C 13.84 g/m*3 18.4 C 0 km/h
393 05-06-2019 08:40:00 18.5 C 13.92 g/m*3 18.5 C 0 km/h
394 05-06-2019 08:45:00 18.6 C 14.01 g/m*3 18.6 C 0 km/h
395 05-06-2019 08:50:00 18.7 C 14.09 g/m*3 18.7 C 0 km/h
396 05-06-2019 08:55:00 18.8 C 14.33 g/m*3 18.8 C 3.2 km/h
397 05-06-2019 09:00:00 19.2 C 13.85 g/m*3 19.2 C 4.8 km/h
398 05-06-2019 09:05:00 19.6 C 14.01 g/m*3 19.6 C 3.2 km/h
399 05-06-2019 09:10:00 20.1 C 14.08 g/m*3 20.1 C 6.4 km/h
400 05-06-2019 09:15:00 20.5 C 13.88 g/m*3 20.5 C 3.2 km/h
Sensor: Nr:Datum:Temp:Abs-Feuchte:Windchill:Wind:
Aussen-T/F 401 05-06-2019 09:20:00 20.8 C 14.12 g/m*3 20.8 C 6.4 km/h
402 05-06-2019 09:25:00 21.2 C 14.27 g/m*3 21.2 C 4.8 km/h
403 05-06-2019 09:30:00 21.3 C 14.17 g/m*3 21.3 C 9.7 km/h
404 05-06-2019 09:35:00 21.6 C 13.85 g/m*3 21.6 C 8.1 km/h
405 05-06-2019 09:40:00 21.8 C 13.81 g/m*3 21.8 C 6.4 km/h
406 05-06-2019 09:45:00 22 C 13.97 g/m*3 22 C 9.7 km/h
407 05-06-2019 09:50:00 22.1 C 14.05 g/m*3 22.1 C 8.1 km/h
408 05-06-2019 09:55:00 22.1 C 13.86 g/m*3 22.1 C 8.1 km/h
409 05-06-2019 10:00:00 22.1 C 13.86 g/m*3 22.1 C 3.2 km/h
410 05-06-2019 10:05:00 22.1 C 14.25 g/m*3 22.1 C 4.8 km/h
411 05-06-2019 10:10:00 22.2 C 14.14 g/m*3 22.2 C 4.8 km/h
412 05-06-2019 10:15:00 22.3 C 14.41 g/m*3 22.3 C 0 km/h
413 05-06-2019 10:20:00 22.5 C 14.18 g/m*3 22.5 C 0 km/h
414 05-06-2019 10:25:00 22.6 C 14.46 g/m*3 22.6 C 4.8 km/h
415 05-06-2019 10:30:00 22.8 C 14.63 g/m*3 22.8 C 4.8 km/h
416 05-06-2019 10:35:00 23.1 C 14.68 g/m*3 23.1 C 3.2 km/h
417 05-06-2019 10:40:00 23.2 C 14.55 g/m*3 23.2 C 3.2 km/h
418 05-06-2019 10:45:00 23.3 C 14.22 g/m*3 23.3 C 6.4 km/h
419 05-06-2019 10:50:00 23.3 C 14.01 g/m*3 23.3 C 4.8 km/h
420 05-06-2019 10:55:00 23.3 C 14.01 g/m*3 23.3 C 4.8 km/h
421 05-06-2019 11:00:00 23.4 C 14.51 g/m*3 23.4 C 1.6 km/h
422 05-06-2019 11:05:00 23.4 C 13.88 g/m*3 23.4 C 4.8 km/h
423 05-06-2019 11:10:00 23.4 C 13.88 g/m*3 23.4 C 1.6 km/h
424 05-06-2019 11:15:00 23.4 C 13.88 g/m*3 23.4 C 1.6 km/h
425 05-06-2019 11:20:00 23.5 C 14.38 g/m*3 23.5 C 1.6 km/h
Sensor: Nr:Datum:Temp:Abs-Feuchte:Windchill:Wind:
Aussen-T/F 426 05-06-2019 11:25:00 23.6 C 14.46 g/m*3 23.6 C 4.8 km/h
427 05-06-2019 11:30:00 23.7 C 14.33 g/m*3 23.7 C 4.8 km/h
428 05-06-2019 11:35:00 23.8 C 14.2 g/m*3 23.8 C 4.8 km/h
429 05-06-2019 11:40:00 23.8 C 13.98 g/m*3 23.8 C 3.2 km/h
430 05-06-2019 11:45:00 23.8 C 13.77 g/m*3 23.8 C 3.2 km/h
431 05-06-2019 11:50:00 23.9 C 14.28 g/m*3 23.9 C 3.2 km/h
432 05-06-2019 11:55:00 24 C 14.14 g/m*3 24 C 6.4 km/h
433 05-06-2019 12:00:00 24.2 C 14.3 g/m*3 24.2 C 6.4 km/h
434 05-06-2019 12:05:00 24.3 C 13.94 g/m*3 24.3 C 3.2 km/h
435 05-06-2019 12:10:00 24.3 C 13.72 g/m*3 24.3 C 6.4 km/h
436 05-06-2019 12:15:00 24.3 C 13.94 g/m*3 24.3 C 6.4 km/h
437 05-06-2019 12:20:00 24.3 C 13.94 g/m*3 24.3 C 4.8 km/h
438 05-06-2019 12:25:00 24.3 C 13.94 g/m*3 24.3 C 1.6 km/h
439 05-06-2019 12:30:00 24.4 C 14.47 g/m*3 24.4 C 1.6 km/h
440 05-06-2019 12:35:00 24.3 C 13.94 g/m*3 24.3 C 6.4 km/h
441 05-06-2019 12:40:00 24.3 C 13.94 g/m*3 24.3 C 0 km/h
442 05-06-2019 12:45:00 24.3 C 14.16 g/m*3 24.3 C 1.6 km/h
443 05-06-2019 12:50:00 24.4 C 14.02 g/m*3 24.4 C 11.3 km/h
444 05-06-2019 12:55:00 24.7 C 14.03 g/m*3 24.7 C 8.1 km/h
445 05-06-2019 13:00:00 25 C 14.04 g/m*3 25 C 9.7 km/h
446 05-06-2019 13:05:00 25.3 C 14.05 g/m*3 25.3 C 14.5 km/h
447 05-06-2019 13:10:00 25.6 C 14.52 g/m*3 25.6 C 9.7 km/h
448 05-06-2019 13:15:00 25.8 C 14.45 g/m*3 25.8 C 8.1 km/h
449 05-06-2019 13:20:00 25.9 C 14.28 g/m*3 25.9 C 4.8 km/h
450 05-06-2019 13:25:00 26 C 14.85 g/m*3 26 C 9.7 km/h
Sensor: Nr:Datum:Temp:Abs-Feuchte:Windchill:Wind:
Aussen-T/F 451 05-06-2019 13:30:00 26.1 C 14.93 g/m*3 26.1 C 6.4 km/h
452 05-06-2019 13:35:00 26.1 C 14.69 g/m*3 26.1 C 8.1 km/h
453 05-06-2019 13:40:00 26.2 C 14.52 g/m*3 26.2 C 9.7 km/h
454 05-06-2019 13:45:00 26.3 C 14.85 g/m*3 26.3 C 6.4 km/h
455 05-06-2019 13:50:00 26.4 C 14.94 g/m*3 26.4 C 4.8 km/h
456 05-06-2019 13:55:00 26.4 C 14.94 g/m*3 26.4 C 4.8 km/h
457 05-06-2019 14:00:00 26.5 C 14.52 g/m*3 26.5 C 9.7 km/h
458 05-06-2019 14:05:00 26.7 C 14.17 g/m*3 26.7 C 12.9 km/h
459 05-06-2019 14:10:00 26.8 C 14.51 g/m*3 26.8 C 11.3 km/h
460 05-06-2019 14:15:00 26.9 C 14.33 g/m*3 26.9 C 12.9 km/h
461 05-06-2019 14:20:00 27.1 C 15.01 g/m*3 27.1 C 11.3 km/h
462 05-06-2019 14:25:00 27.2 C 14.83 g/m*3 27.2 C 12.9 km/h
463 05-06-2019 14:30:00 27.3 C 14.91 g/m*3 27.3 C 9.7 km/h
464 05-06-2019 14:35:00 27.4 C 14.47 g/m*3 27.4 C 11.3 km/h
465 05-06-2019 14:40:00 27.5 C 14.82 g/m*3 27.5 C 9.7 km/h
466 05-06-2019 14:45:00 27.7 C 14.98 g/m*3 27.7 C 9.7 km/h
467 05-06-2019 14:50:00 27.9 C 14.6 g/m*3 27.9 C 12.9 km/h
468 05-06-2019 14:55:00 28.1 C 14.49 g/m*3 28.1 C 9.7 km/h
469 05-06-2019 15:00:00 28.2 C 14.85 g/m*3 28.2 C 8.1 km/h
470 05-06-2019 15:05:00 28.3 C 14.93 g/m*3 28.3 C 8.1 km/h
471 05-06-2019 15:10:00 28.6 C 14.89 g/m*3 28.6 C 8.1 km/h
472 05-06-2019 15:15:00 28.8 C 14.49 g/m*3 28.8 C 14.5 km/h
473 05-06-2019 15:20:00 29 C 14.36 g/m*3 29 C 14.5 km/h
474 05-06-2019 15:25:00 29.3 C 14.31 g/m*3 29.3 C 11.3 km/h
475 05-06-2019 15:30:00 29.4 C 14.38 g/m*3 29.4 C 11.3 km/h
Sensor: Nr:Datum:Temp:Abs-Feuchte:Windchill:Wind:
Aussen-T/F 476 05-06-2019 15:35:00 29.6 C 14.84 g/m*3 29.6 C 9.7 km/h
477 05-06-2019 15:40:00 30 C 15.16 g/m*3 30 C 6.4 km/h
478 05-06-2019 15:45:00 30.5 C 15.58 g/m*3 30.5 C 9.7 km/h
479 05-06-2019 15:50:00 31 C 13.44 g/m*3 31 C 8.1 km/h
480 05-06-2019 15:55:00 31.3 C 13.98 g/m*3 31.3 C 3.2 km/h
481 05-06-2019 16:00:00 31.6 C 12.89 g/m*3 31.6 C 8.1 km/h
482 05-06-2019 16:05:00 31.5 C 13.15 g/m*3 31.5 C 11.3 km/h
483 05-06-2019 16:10:00 31.4 C 13.08 g/m*3 31.4 C 8.1 km/h
484 05-06-2019 16:15:00 31.7 C 14.29 g/m*3 31.7 C 4.8 km/h
485 05-06-2019 16:20:00 31.9 C 14.44 g/m*3 31.9 C 4.8 km/h
486 05-06-2019 16:25:00 32.2 C 14.33 g/m*3 32.2 C 6.4 km/h
487 05-06-2019 16:30:00 32.2 C 13.99 g/m*3 32.2 C 8.1 km/h
488 05-06-2019 16:35:00 32 C 14.18 g/m*3 32 C 4.8 km/h
489 05-06-2019 16:40:00 31.4 C 14.71 g/m*3 31.4 C 3.2 km/h
490 05-06-2019 16:45:00 30.6 C 12.84 g/m*3 30.6 C 8.1 km/h
491 05-06-2019 16:50:00 29.9 C 12.67 g/m*3 29.9 C 4.8 km/h
492 05-06-2019 16:55:00 29.8 C 12.9 g/m*3 29.8 C 6.4 km/h
493 05-06-2019 17:00:00 29.9 C 15.08 g/m*3 29.9 C 4.8 km/h
494 05-06-2019 17:05:00 29.8 C 16.5 g/m*3 29.8 C 0 km/h
495 05-06-2019 17:10:00 29.8 C 16.2 g/m*3 29.8 C 3.2 km/h
496 05-06-2019 17:15:00 29.8 C 14.1 g/m*3 29.8 C 1.6 km/h
497 05-06-2019 17:20:00 29.9 C 14.48 g/m*3 29.9 C 1.6 km/h
498 05-06-2019 17:25:00 29.9 C 14.78 g/m*3 29.9 C 1.6 km/h
499 05-06-2019 17:30:00 30.2 C 12.87 g/m*3 30.2 C 6.4 km/h
500 05-06-2019 17:35:00 30.6 C 15.03 g/m*3 30.6 C 3.2 km/h
Sensor: Nr:Datum:Temp:Abs-Feuchte:Windchill:Wind:
Aussen-T/F 501 05-06-2019 17:40:00 31.3 C 13.01 g/m*3 31.3 C 6.4 km/h
502 05-06-2019 17:45:00 31.4 C 13.41 g/m*3 31.4 C 6.4 km/h
503 05-06-2019 17:50:00 31.4 C 14.06 g/m*3 31.4 C 4.8 km/h
504 05-06-2019 17:55:00 31.2 C 14.23 g/m*3 31.2 C 1.6 km/h
505 05-06-2019 18:00:00 30.8 C 15.2 g/m*3 30.8 C 0 km/h
506 05-06-2019 18:05:00 30.3 C 16.03 g/m*3 30.3 C 0 km/h
507 05-06-2019 18:10:00 29.7 C 15.81 g/m*3 29.7 C 0 km/h
508 05-06-2019 18:15:00 29.1 C 15.6 g/m*3 29.1 C 0 km/h
509 05-06-2019 18:20:00 28.4 C 15.57 g/m*3 28.4 C 0 km/h
510 05-06-2019 18:25:00 27.8 C 15.33 g/m*3 27.8 C 0 km/h
511 05-06-2019 18:30:00 27.3 C 15.18 g/m*3 27.3 C 0 km/h
512 05-06-2019 18:35:00 27.1 C 15.53 g/m*3 27.1 C 0 km/h
513 05-06-2019 18:40:00 27.3 C 16.22 g/m*3 27.3 C 0 km/h
514 05-06-2019 18:45:00 27.8 C 15.87 g/m*3 27.8 C 0 km/h
515 05-06-2019 18:50:00 28.4 C 16.4 g/m*3 28.4 C 0 km/h
516 05-06-2019 18:55:00 29.3 C 16.35 g/m*3 29.3 C 0 km/h
517 05-06-2019 19:00:00 29.8 C 14.7 g/m*3 29.8 C 0 km/h
518 05-06-2019 19:05:00 30.2 C 16.55 g/m*3 30.2 C 0 km/h
519 05-06-2019 19:10:00 30.4 C 17.35 g/m*3 30.4 C 0 km/h
520 05-06-2019 19:15:00 30.3 C 16.95 g/m*3 30.3 C 0 km/h
521 05-06-2019 19:20:00 30.2 C 16.55 g/m*3 30.2 C 0 km/h
522 05-06-2019 19:25:00 30.1 C 17.38 g/m*3 30.1 C 0 km/h
523 05-06-2019 19:30:00 29.9 C 16.89 g/m*3 29.9 C 0 km/h
524 05-06-2019 19:35:00 29.7 C 16.41 g/m*3 29.7 C 0 km/h
525 05-06-2019 19:40:00 29.4 C 16.15 g/m*3 29.4 C 0 km/h
Sensor: Nr:Datum:Temp:Abs-Feuchte:Windchill:Wind:
Aussen-T/F 526 05-06-2019 19:45:00 29.2 C 15.97 g/m*3 29.2 C 0 km/h
527 05-06-2019 19:50:00 28.9 C 15.71 g/m*3 28.9 C 0 km/h
528 05-06-2019 19:55:00 28.7 C 15.54 g/m*3 28.7 C 0 km/h
529 05-06-2019 20:00:00 28.5 C 16.21 g/m*3 28.5 C 0 km/h
530 05-06-2019 20:05:00 28.4 C 15.84 g/m*3 28.4 C 0 km/h
531 05-06-2019 20:10:00 28.4 C 15.84 g/m*3 28.4 C 0 km/h
532 05-06-2019 20:15:00 28.3 C 15.76 g/m*3 28.3 C 0 km/h
533 05-06-2019 20:20:00 28.2 C 15.4 g/m*3 28.2 C 0 km/h
534 05-06-2019 20:25:00 28 C 15.23 g/m*3 28 C 0 km/h
535 05-06-2019 20:30:00 27.7 C 14.71 g/m*3 27.7 C 0 km/h
536 05-06-2019 20:35:00 27.4 C 14.47 g/m*3 27.4 C 0 km/h
537 05-06-2019 20:40:00 27.1 C 14.23 g/m*3 27.1 C 0 km/h
538 05-06-2019 20:45:00 26.7 C 14.43 g/m*3 26.7 C 0 km/h
539 05-06-2019 20:50:00 26.2 C 14.03 g/m*3 26.2 C 0 km/h
540 05-06-2019 20:55:00 25.8 C 14.2 g/m*3 25.8 C 0 km/h
541 05-06-2019 21:00:00 25.3 C 14.05 g/m*3 25.3 C 0 km/h
542 05-06-2019 21:05:00 24.8 C 13.88 g/m*3 24.8 C 0 km/h
543 05-06-2019 21:10:00 24.4 C 14.02 g/m*3 24.4 C 0 km/h
544 05-06-2019 21:15:00 23.9 C 13.85 g/m*3 23.9 C 0 km/h
545 05-06-2019 21:20:00 23.6 C 14.04 g/m*3 23.6 C 0 km/h
546 05-06-2019 21:25:00 23.3 C 14.22 g/m*3 23.3 C 0 km/h
547 05-06-2019 21:30:00 23.1 C 14.47 g/m*3 23.1 C 0 km/h
548 05-06-2019 21:35:00 22.9 C 14.71 g/m*3 22.9 C 0 km/h
549 05-06-2019 21:40:00 22.7 C 14.75 g/m*3 22.7 C 0 km/h
550 05-06-2019 21:45:00 22.6 C 14.87 g/m*3 22.6 C 0 km/h
Sensor: Nr:Datum:Temp:Abs-Feuchte:Windchill:Wind:
Aussen-T/F 551 05-06-2019 21:50:00 22.4 C 14.7 g/m*3 22.4 C 0 km/h
552 05-06-2019 21:55:00 22.3 C 14.81 g/m*3 22.3 C 0 km/h
553 05-06-2019 22:00:00 22.2 C 14.72 g/m*3 22.2 C 0 km/h
554 05-06-2019 22:05:00 22.1 C 14.84 g/m*3 22.1 C 0 km/h
555 05-06-2019 22:10:00 21.9 C 14.47 g/m*3 21.9 C 0 km/h
556 05-06-2019 22:15:00 21.8 C 14.39 g/m*3 21.8 C 0 km/h
557 05-06-2019 22:20:00 21.8 C 14.39 g/m*3 21.8 C 0 km/h
558 05-06-2019 22:25:00 21.7 C 14.31 g/m*3 21.7 C 0 km/h
559 05-06-2019 22:30:00 21.6 C 14.41 g/m*3 21.6 C 0 km/h
560 05-06-2019 22:35:00 21.4 C 14.25 g/m*3 21.4 C 0 km/h
561 05-06-2019 22:40:00 21.4 C 14.25 g/m*3 21.4 C 0 km/h
562 05-06-2019 22:45:00 21.3 C 14.17 g/m*3 21.3 C 0 km/h
563 05-06-2019 22:50:00 21.2 C 14.27 g/m*3 21.2 C 0 km/h
564 05-06-2019 22:55:00 21.1 C 14 g/m*3 21.1 C 0 km/h
565 05-06-2019 23:00:00 21 C 13.92 g/m*3 21 C 0 km/h
566 05-06-2019 23:05:00 20.9 C 13.84 g/m*3 20.9 C 0 km/h
567 05-06-2019 23:10:00 20.9 C 14.02 g/m*3 20.9 C 0 km/h
568 05-06-2019 23:15:00 20.8 C 13.94 g/m*3 20.8 C 0 km/h
569 05-06-2019 23:20:00 20.8 C 14.12 g/m*3 20.8 C 0 km/h
570 05-06-2019 23:25:00 20.8 C 13.94 g/m*3 20.8 C 0 km/h
571 05-06-2019 23:30:00 20.8 C 13.94 g/m*3 20.8 C 0 km/h
572 05-06-2019 23:35:00 20.8 C 13.94 g/m*3 20.8 C 0 km/h
573 05-06-2019 23:40:00 20.8 C 13.94 g/m*3 20.8 C 0 km/h
574 05-06-2019 23:45:00 20.8 C 14.12 g/m*3 20.8 C 0 km/h
575 05-06-2019 23:50:00 20.8 C 14.12 g/m*3 20.8 C 0 km/h
Sensor: Nr:Datum:Temp:Abs-Feuchte:Windchill:Wind:
Aussen-T/F 576 05-06-2019 23:55:00 20.8 C 14.3 g/m*3 20.8 C 0 km/h

Legende:
   Min
   Max


Maximal/Minimal-Werte vom 11.05.2019 - 13.06.2019

Sensor Min Max Avg
Temp
(Aussen-T/F)
2.2 °C
13-05-2019  06:50:00
33.4 °C
02-06-2019  17:30:00
15.41 °C

Die Daten stammen von einer Davis Vantage Pro 2 Wetter-Station und werden unter Linux mit der Software wview2wettercgi und aufbereitet. Alle Angaben erfolgen ohne Gewähr für ihre Vollständigkeit oder Richtigkeit.
Kontakt: Rainer Krienke krienke@uni-koblenz.de . Meine Webseiten an der Uni Koblenz oder privat.
Version: $Revision: 0.78 $